• Join FlightAware (Why Join?)
  • Login
  • US Flag 
02:03PM EDT


 

Airport Tracker/Info


-or-


 

Live Flight TrackerFlight Track Log ✈ LV-CSD ✈ 06-Jul-2013 ✈ SAEZ / EZE - KMIA

Flight Track Log - Related Links

Times and Time Zones

All times are in EDT time to prevent confusion due to time zone crossing. See the LV-CSD flight status page for this flight to view local times or setup timezone preferences in your user account.

Time Position Orientation Groundspeed Altitude Reporting Facility
EDT Latitude Longitude Course Direction KTS MPH feet Rate Location/Type
07:41AM -34.6999 -58.5838 340° North  Level FlightAware Approximate
07:42AM -34.5762 -58.6387 340° North  Level FlightAware Approximate
07:43AM -34.4526 -58.6934 340° North  Level FlightAware Approximate
07:44AM -34.3289 -58.7479 340° North  Level FlightAware Approximate
07:45AM -34.2052 -58.8023 340° North  Level FlightAware Approximate
07:46AM -34.0815 -58.8565 340° North  Level FlightAware Approximate
07:47AM -33.9578 -58.9106 340° North  Level FlightAware Approximate
07:48AM -33.8340 -58.9645 340° North  Level FlightAware Approximate
07:48AM -34.8270 -58.5110 340° North 172 198 400  Level FlightAware
07:49AM -33.7102 -59.0183 340° North  Level FlightAware Approximate
07:49AM -34.8340 -58.4830 107° East 171 197 1,100  Level FlightAware
07:49AM -34.8420 -58.4740 137° Southeast 163 188 1,500 1,320 Climbing FlightAware
07:49AM -34.8520 -58.4580 127° Southeast 177 204 1,900 780 Climbing FlightAware
07:50AM -34.8390 -58.4320 59° Northeast 206 237 2,200 540 Climbing FlightAware
07:50AM -34.8290 -58.4290 14° North 212 244 2,300 780 Climbing FlightAware
07:50AM -34.7940 -58.4360 351° North 244 281 2,800 1,260 Climbing FlightAware
07:51AM -34.7630 -58.4500 340° North 262 302 3,600 2,040 Climbing FlightAware
07:51AM -34.7310 -58.4710 332° Northwest 263 303 4,800 2,040 Climbing FlightAware
07:52AM -34.7130 -58.4820 333° Northwest 264 304 5,200 2,400 Climbing FlightAware
07:52AM -34.6840 -58.5000 333° Northwest 262 302 6,500 3,180 Climbing FlightAware
07:53AM -34.6570 -58.5170 333° Northwest 243 280 8,100 3,120 Climbing FlightAware
07:53AM -34.6480 -58.5230 331° Northwest 245 282 8,400 1,740 Climbing FlightAware
07:53AM -34.6180 -58.5420 332° Northwest 260 299 9,200 1,800 Climbing FlightAware
07:54AM -34.5740 -58.5700 332° Northwest 275 316 10,500 1,380 Climbing FlightAware
07:55AM -34.5230 -58.6020 333° Northwest 315 362 11,100 900 Climbing FlightAware
07:55AM -34.4720 -58.6340 333° Northwest 347 399 11,700 1,500 Climbing FlightAware
07:56AM -34.4130 -58.6700 333° Northwest 353 406 13,100 2,580 Climbing FlightAware
07:57AM -34.3560 -58.7060 332° Northwest 336 387 15,200 2,520 Climbing FlightAware
07:57AM -34.3010 -58.7400 333° Northwest 344 396 16,500 1,800 Climbing FlightAware
07:58AM -34.2370 -58.7800 333° Northwest 356 410 17,700 1,560 Climbing FlightAware
07:59AM -34.1680 -58.8230 333° Northwest 369 425 18,900 1,740 Climbing FlightAware
07:59AM -34.1070 -58.8610 333° Northwest 373 429 20,200 1,800 Climbing FlightAware
08:00AM -34.0760 -58.8810 332° Northwest 376 433 20,700 1,680 Climbing FlightAware
08:01AM -33.9190 -58.9840 331° Northwest 376 433 23,700 1,560 Climbing FlightAware
08:02AM -33.8530 -59.0320 329° Northwest 386 444 24,500 1,020 Climbing FlightAware
08:03AM -33.7870 -59.0800 329° Northwest 396 456 25,200 960 Climbing FlightAware
08:04AM -33.7200 -59.1290 329° Northwest 404 465 25,900 1,020 Climbing FlightAware
08:04AM -33.6590 -59.1740 328° Northwest 409 471 26,600 1,260 Climbing FlightAware
08:05AM -33.5840 -59.2280 329° Northwest 406 467 27,700 1,560 Climbing FlightAware
08:06AM -33.5200 -59.2740 329° Northwest 399 459 28,900 1,380 Climbing FlightAware
08:06AM -33.4540 -59.3220 329° Northwest 403 464 29,600 1,020 Climbing FlightAware
08:07AM -33.3890 -59.3690 329° Northwest 405 466 30,300 1,200 Climbing FlightAware
08:08AM -33.3280 -59.4120 329° Northwest 400 460 31,200 1,320 Climbing FlightAware
08:08AM -33.2690 -59.4550 329° Northwest 396 456 32,000 1,080 Climbing FlightAware
08:09AM -33.1990 -59.5050 329° Northwest 395 455 32,700 1,140 Climbing FlightAware
08:10AM -33.1320 -59.5530 329° Northwest 388 447 33,700 900 Climbing FlightAware
08:10AM -33.0700 -59.5980 329° Northwest 387 445 34,000 180 Climbing FlightAware
08:11AM -32.9800 -59.6620 329° Northwest 387 445 34,000  Level FlightAware
08:12AM -32.9190 -59.7050 329° Northwest 385 443 34,000  Level FlightAware
08:13AM -32.8550 -59.7510 329° Northwest 384 442 34,000  Level FlightAware
08:13AM -32.7970 -59.7920 329° Northwest 385 443 34,000  Level FlightAware
08:14AM -32.7350 -59.8360 329° Northwest 385 443 34,000  Level FlightAware
08:15AM -32.6690 -59.8830 329° Northwest 385 443 34,000  Level FlightAware
08:16AM -32.5940 -59.9350 330° Northwest 386 444 34,000  Level FlightAware
08:16AM -32.5330 -59.9790 329° Northwest 386 444 34,000  Level FlightAware
08:17AM -32.4470 -60.0390 330° Northwest 386 444 34,000  Level FlightAware
08:18AM -32.3850 -60.0830 329° Northwest 387 445 34,000  Level FlightAware
08:19AM -32.3150 -60.1320 329° Northwest 386 444 34,000  Level FlightAware
08:19AM -32.2480 -60.1790 329° Northwest 387 445 34,000  Level FlightAware
08:20AM -32.1820 -60.2250 329° Northwest 387 445 34,000  Level FlightAware
08:21AM -32.1110 -60.2750 329° Northwest 388 447 34,000  Level FlightAware
08:21AM -32.0520 -60.3160 329° Northwest 386 444 34,000  Level FlightAware
08:22AM -31.9770 -60.3680 330° Northwest 385 443 34,000  Level FlightAware
08:23AM -31.8910 -60.4290 329° Northwest 384 442 34,000  Level FlightAware
08:24AM -31.8440 -60.4620 329° Northwest 384 442 34,000  Level FlightAware
08:25AM -31.7660 -60.5160 330° Northwest 384 442 34,000  Level FlightAware
08:25AM -31.7220 -60.5480 328° Northwest 384 442 34,000  Level FlightAware
08:26AM -31.6450 -60.6020 329° Northwest 384 442 34,000  Level FlightAware
08:27AM -31.6010 -60.6330 329° Northwest 384 442 34,000  Level FlightAware
08:28AM -31.5370 -60.6780 329° Northwest 384 442 34,000  Level FlightAware
08:28AM -31.4890 -60.7120 329° Northwest 384 442 34,000  Level FlightAware
08:29AM -31.4100 -60.7680 329° Northwest 384 442 34,000  Level FlightAware
08:30AM -31.3630 -60.8010 329° Northwest 384 442 34,000  Level FlightAware
08:31AM -31.3020 -60.8440 329° Northwest 384 442 34,000  Level FlightAware
08:31AM -31.2550 -60.8770 329° Northwest 384 442 34,000  Level FlightAware
08:32AM -31.1940 -60.9200 329° Northwest 384 442 34,000  Level FlightAware
08:35AM -30.9160 -61.0391 340° North  Level Estimated
08:35AM -30.7840 -61.2570 340° North 393 452 34,000  Level FlightAware
08:36AM -30.7924 -61.0918 340° North  Level Estimated
08:36AM -30.7230 -61.3020 328° Northwest 394 453 34,000  Level FlightAware
08:37AM -30.6790 -61.3360 326° Northwest 394 453 34,000  Level FlightAware
08:37AM -30.6130 -61.3780 331° Northwest 409 471 34,000  Level FlightAware
08:38AM -30.5220 -61.3980 349° North 424 488 34,000  Level FlightAware
08:39AM -30.4460 -61.4130 350° North 422 486 34,000  Level FlightAware
08:39AM -30.3670 -61.4290 350° North 424 488 34,000  Level FlightAware
08:40AM -30.2970 -61.4430 350° North 424 488 34,000  Level FlightAware
08:41AM -30.1950 -61.4630 350° North 424 488 34,000  Level FlightAware
08:41AM -30.1350 -61.4760 349° North 424 488 34,000  Level FlightAware
08:42AM -30.0760 -61.4880 350° North 424 488 34,000  Level FlightAware
08:43AM -29.9980 -61.5030 351° North 424 488 34,000  Level FlightAware
08:43AM -29.9380 -61.5160 349° North 424 488 34,000  Level FlightAware
08:44AM -29.8590 -61.5320 350° North 424 488 34,000  Level FlightAware
08:45AM -29.7540 -61.5530 350° North 424 488 34,000  Level FlightAware
08:46AM -29.6750 -61.5690 350° North 424 488 34,000  Level FlightAware
08:47AM -29.6010 -61.5840 350° North 424 488 34,000  Level FlightAware
08:48AM -29.5420 -61.5960 350° North 424 488 34,000  Level FlightAware
08:48AM -29.4840 -61.6080 350° North 424 488 34,000  Level FlightAware
08:49AM -29.4200 -61.6210 350° North 424 488 34,000  Level FlightAware
08:50AM -29.3420 -61.6370 350° North 424 488 34,000  Level FlightAware
08:50AM -29.2860 -61.6480 350° North 424 488 34,000  Level FlightAware
08:53AM -28.9889 -61.7707 340° North  Level Estimated
08:54AM -28.8650 -61.8216 340° North  Level Estimated
08:55AM -28.7412 -61.8723 340° North  Level Estimated
08:56AM -28.6173 -61.9230 340° North  Level Estimated
08:57AM -28.4934 -61.9735 340° North  Level Estimated
08:58AM -28.3695 -62.0240 340° North  Level Estimated
08:59AM -28.2456 -62.0743 340° North  Level Estimated
09:00AM -28.1216 -62.1245 340° North  Level Estimated
09:01AM -27.9977 -62.1745 340° North  Level Estimated
09:02AM -27.8737 -62.2245 340° North  Level Estimated
09:03AM -27.7497 -62.2743 340° North  Level Estimated
09:04AM -27.6256 -62.3241 340° North  Level Estimated
09:05AM -27.5016 -62.3737 340° North  Level Estimated
09:06AM -27.3775 -62.4232 340° North  Level Estimated
09:07AM -27.2535 -62.4726 341° North  Level Estimated
09:08AM -27.1294 -62.5218 341° North  Level Estimated
09:09AM -27.0053 -62.5710 341° North  Level Estimated
09:10AM -26.8811 -62.6201 341° North  Level Estimated
09:11AM -26.7570 -62.6690 341° North  Level Estimated
09:12AM -26.6328 -62.7179 341° North  Level Estimated
09:13AM -26.5087 -62.7666 341° North  Level Estimated
09:14AM -26.3845 -62.8153 341° North  Level Estimated
09:15AM -26.2603 -62.8638 341° North  Level Estimated
09:16AM -26.1360 -62.9123 341° North  Level Estimated
09:17AM -26.0118 -62.9606 341° North  Level Estimated
09:18AM -25.8875 -63.0088 341° North  Level Estimated
09:19AM -25.7633 -63.0569 341° North  Level Estimated
09:20AM -25.6390 -63.1050 341° North  Level Estimated
09:21AM -25.5147 -63.1529 341° North  Level Estimated
09:22AM -25.3904 -63.2007 341° North  Level Estimated
09:23AM -25.2660 -63.2484 341° North  Level Estimated
09:24AM -25.1417 -63.2961 341° North  Level Estimated
09:25AM -25.0173 -63.3436 341° North  Level Estimated
09:26AM -24.8929 -63.3910 341° North  Level Estimated
09:27AM -24.7685 -63.4384 341° North  Level Estimated
09:28AM -24.6441 -63.4856 341° North  Level Estimated
09:29AM -24.5197 -63.5328 341° North  Level Estimated
09:30AM -24.3952 -63.5798 341° North  Level Estimated
09:31AM -24.2708 -63.6268 341° North  Level Estimated
09:32AM -24.1463 -63.6737 341° North  Level Estimated
09:33AM -24.0218 -63.7205 341° North  Level Estimated
09:34AM -23.8973 -63.7672 341° North  Level Estimated
09:35AM -23.7728 -63.8138 341° North  Level Estimated
09:36AM -23.6483 -63.8603 341° North  Level Estimated
09:37AM -23.5238 -63.9067 341° North  Level Estimated
09:38AM -23.3992 -63.9530 341° North  Level Estimated
09:39AM -23.2746 -63.9993 341° North  Level Estimated
09:40AM -23.1501 -64.0454 341° North  Level Estimated
09:41AM -23.0255 -64.0915 341° North  Level Estimated
09:42AM -22.9009 -64.1375 341° North  Level Estimated
09:43AM -22.7762 -64.1834 341° North  Level Estimated
09:43AM -22.6932 -64.2140 341° North  Level Estimated
09:44AM -22.6516 -64.2292 341° North  Level Estimated
09:45AM -22.5270 -64.2750 341° North  Level Estimated
09:45AM -22.5270 -64.2750 341° North  Level Estimated
09:46AM -22.4023 -64.3206 341° North  Level Estimated
09:46AM -22.4023 -64.3206 341° North  Level Estimated
09:47AM -22.2776 -64.3662 341° North  Level Estimated
09:47AM -22.2776 -64.3662 341° North  Level Estimated
09:48AM -22.1530 -64.4117 341° North  Level Estimated
09:48AM -22.1530 -64.4117 341° North  Level Estimated
09:49AM -22.0283 -64.4571 341° North  Level Estimated
09:49AM -22.0282 -64.4571 341° North  Level Estimated
09:50AM -21.9035 -64.5025 341° North  Level Estimated
09:50AM -21.9035 -64.5025 341° North  Level Estimated
09:51AM -21.7788 -64.5477 341° North  Level Estimated
09:51AM -21.7788 -64.5477 341° North  Level Estimated
09:52AM -21.6541 -64.5929 341° North  Level Estimated
09:52AM -21.6541 -64.5929 341° North  Level Estimated
09:53AM -21.5293 -64.6380 341° North  Level Estimated
09:53AM -21.5294 -64.6380 341° North  Level Estimated
09:54AM -21.4046 -64.6830 341° North  Level Estimated
09:54AM -21.4046 -64.6830 341° North  Level Estimated
09:55AM -21.2798 -64.7280 341° North  Level Estimated
09:55AM -21.2798 -64.7280 341° North  Level Estimated
09:56AM -21.1550 -64.7729 341° North  Level Estimated
09:56AM -21.1550 -64.7729 341° North  Level Estimated
09:57AM -21.0302 -64.8176 341° North  Level Estimated
09:57AM -21.0303 -64.8176 341° North  Level Estimated
09:58AM -20.9054 -64.8624 341° North  Level Estimated
09:58AM -20.9054 -64.8624 341° North  Level Estimated
09:59AM -20.7806 -64.9070 342° North  Level Estimated
09:59AM -20.7806 -64.9070 342° North  Level Estimated
10:00AM -20.6558 -64.9516 342° North  Level Estimated
10:00AM -20.6558 -64.9516 342° North  Level Estimated
10:01AM -20.5309 -64.9961 342° North  Level Estimated
10:01AM -20.5310 -64.9961 342° North  Level Estimated
10:02AM -20.4061 -65.0405 342° North  Level Estimated
10:02AM -20.4061 -65.0405 342° North  Level Estimated
10:03AM -20.2812 -65.0848 342° North  Level Estimated
10:03AM -20.2812 -65.0848 342° North  Level Estimated
10:04AM -20.1564 -65.1291 342° North  Level Estimated
10:04AM -20.1564 -65.1291 342° North  Level Estimated
10:05AM -20.0315 -65.1733 342° North  Level Estimated
10:05AM -20.0315 -65.1733 342° North  Level Estimated
10:06AM -19.9066 -65.2175 342° North  Level Estimated
10:06AM -19.9066 -65.2175 342° North  Level Estimated
10:07AM -19.7817 -65.2616 342° North  Level Estimated
10:07AM -19.7817 -65.2615 342° North  Level Estimated
10:08AM -19.6567 -65.3055 342° North  Level Estimated
10:08AM -19.6567 -65.3055 342° North  Level Estimated
10:09AM -19.5318 -65.3495 342° North  Level Estimated
10:09AM -19.5318 -65.3495 342° North  Level Estimated
10:10AM -19.4069 -65.3933 342° North  Level Estimated
10:10AM -19.4069 -65.3933 342° North  Level Estimated
10:11AM -19.2819 -65.4371 342° North  Level Estimated
10:11AM -19.2819 -65.4371 342° North  Level Estimated
10:12AM -19.1570 -65.4809 342° North  Level Estimated
10:12AM -19.1570 -65.4809 342° North  Level Estimated
10:13AM -19.0320 -65.5245 342° North  Level Estimated
10:13AM -19.0320 -65.5245 342° North  Level Estimated
10:14AM -18.9070 -65.5681 342° North  Level Estimated
10:14AM -18.9070 -65.5681 342° North  Level Estimated
10:15AM -18.7820 -65.6117 342° North  Level Estimated
10:15AM -18.7820 -65.6117 342° North  Level Estimated
10:16AM -18.6570 -65.6551 342° North  Level Estimated
10:16AM -18.6570 -65.6551 342° North  Level Estimated
10:17AM -18.5320 -65.6985 342° North  Level Estimated
10:17AM -18.5320 -65.6985 342° North  Level Estimated
10:18AM -18.4070 -65.7419 342° North  Level Estimated
10:18AM -18.4070 -65.7419 342° North  Level Estimated
10:19AM -18.2820 -65.7852 342° North  Level Estimated
10:19AM -18.2820 -65.7852 342° North  Level Estimated
10:20AM -18.1569 -65.8284 342° North  Level Estimated
10:20AM -18.1569 -65.8284 342° North  Level Estimated
10:21AM -18.0319 -65.8715 342° North  Level Estimated
10:21AM -18.0319 -65.8715 342° North  Level Estimated
10:22AM -17.9068 -65.9146 342° North  Level Estimated
10:22AM -17.9068 -65.9146 342° North  Level Estimated
10:23AM -17.7817 -65.9577 342° North  Level Estimated
10:23AM -17.7817 -65.9577 342° North  Level Estimated
10:24AM -17.6567 -66.0006 342° North  Level Estimated
10:24AM -17.6567 -66.0006 342° North  Level Estimated
10:25AM -17.5316 -66.0435 342° North  Level Estimated
10:25AM -17.5316 -66.0435 342° North  Level Estimated
10:26AM -17.4065 -66.0864 342° North  Level Estimated
10:26AM -17.4065 -66.0864 342° North  Level Estimated
10:27AM -17.2814 -66.1292 342° North  Level Estimated
10:27AM -17.2814 -66.1292 342° North  Level Estimated
10:28AM -17.1562 -66.1719 342° North  Level Estimated
10:28AM -17.1562 -66.1719 342° North  Level Estimated
10:29AM -17.0311 -66.2146 342° North  Level Estimated
10:29AM -17.0311 -66.2146 342° North  Level Estimated
10:30AM -16.9060 -66.2572 342° North  Level Estimated
10:30AM -16.9060 -66.2572 342° North  Level Estimated
10:31AM -16.7809 -66.2998 342° North  Level Estimated
10:31AM -16.7808 -66.2998 342° North  Level Estimated
10:32AM -16.6557 -66.3423 342° North  Level Estimated
10:32AM -16.6557 -66.3423 342° North  Level Estimated
10:33AM -16.5306 -66.3848 342° North  Level Estimated
10:33AM -16.5305 -66.3848 342° North  Level Estimated
10:34AM -16.4054 -66.4272 342° North  Level Estimated
10:34AM -16.4054 -66.4272 342° North  Level Estimated
10:35AM -16.2802 -66.4695 342° North  Level Estimated
10:35AM -16.2802 -66.4695 342° North  Level Estimated
10:36AM -16.1550 -66.5118 342° North  Level Estimated
10:36AM -16.1550 -66.5118 342° North  Level Estimated
10:37AM -16.0298 -66.5540 342° North  Level Estimated
10:37AM -16.0298 -66.5540 342° North  Level Estimated
10:38AM -15.9046 -66.5962 342° North  Level Estimated
10:38AM -15.9046 -66.5962 342° North  Level Estimated
10:39AM -15.7794 -66.6383 342° North  Level Estimated
10:39AM -15.7794 -66.6383 342° North  Level Estimated
10:40AM -15.6542 -66.6804 342° North  Level Estimated
10:40AM -15.6542 -66.6804 342° North  Level Estimated
10:41AM -15.5290 -66.7225 342° North  Level Estimated
10:41AM -15.5290 -66.7225 342° North  Level Estimated
10:42AM -15.4037 -66.7644 342° North  Level Estimated
10:42AM -15.4037 -66.7644 342° North  Level Estimated
10:43AM -15.2785 -66.8064 342° North  Level Estimated
10:43AM -15.2785 -66.8064 342° North  Level Estimated
10:44AM -15.1532 -66.8482 342° North  Level Estimated
10:44AM -15.1532 -66.8482 342° North  Level Estimated
10:45AM -15.0280 -66.8901 342° North  Level Estimated
10:45AM -15.0280 -66.8901 342° North  Level Estimated
10:46AM -14.9027 -66.9318 342° North  Level Estimated
10:46AM -14.9027 -66.9318 342° North  Level Estimated
10:47AM -14.7775 -66.9736 342° North  Level Estimated
10:47AM -14.7774 -66.9736 342° North  Level Estimated
10:48AM -14.6522 -67.0153 342° North  Level Estimated
10:48AM -14.6522 -67.0153 342° North  Level Estimated
10:49AM -14.5269 -67.0569 342° North  Level Estimated
10:49AM -14.5269 -67.0569 342° North  Level Estimated
10:50AM -14.4016 -67.0985 342° North  Level Estimated
10:50AM -14.4016 -67.0985 342° North  Level Estimated
10:51AM -14.2763 -67.1400 342° North  Level Estimated
10:51AM -14.2763 -67.1400 342° North  Level Estimated
10:52AM -14.1510 -67.1815 342° North  Level Estimated
10:52AM -14.1510 -67.1815 342° North  Level Estimated
10:53AM -14.0257 -67.2230 342° North  Level Estimated
10:53AM -14.0257 -67.2230 342° North  Level Estimated
10:54AM -13.9003 -67.2644 342° North  Level Estimated
10:54AM -13.9003 -67.2644 342° North  Level Estimated
10:55AM -13.7750 -67.3057 342° North  Level Estimated
10:55AM -13.7750 -67.3057 342° North  Level Estimated
10:56AM -13.6497 -67.3470 342° North  Level Estimated
10:56AM -13.6497 -67.3470 342° North  Level Estimated
10:57AM -13.5243 -67.3883 342° North  Level Estimated
10:57AM -13.5243 -67.3883 342° North  Level Estimated
10:58AM -13.3990 -67.4295 342° North  Level Estimated
10:58AM -13.3990 -67.4295 342° North  Level Estimated
10:59AM -13.2736 -67.4707 342° North  Level Estimated
10:59AM -13.2736 -67.4707 342° North  Level Estimated
11:00AM -13.1483 -67.5118 342° North  Level Estimated
11:00AM -13.1483 -67.5118 342° North  Level Estimated
11:01AM -13.0229 -67.5529 342° North  Level Estimated
11:01AM -13.0229 -67.5529 342° North  Level Estimated
11:02AM -12.8975 -67.5940 342° North  Level Estimated
11:02AM -12.8975 -67.5940 342° North  Level Estimated
11:03AM -12.7721 -67.6350 342° North  Level Estimated
11:03AM -12.7721 -67.6350 342° North  Level Estimated
11:04AM -12.6467 -67.6760 342° North  Level Estimated
11:04AM -12.6468 -67.6760 342° North  Level Estimated
11:05AM -12.5213 -67.7169 342° North  Level Estimated
11:05AM -12.5213 -67.7169 342° North  Level Estimated
11:06AM -12.3959 -67.7579 342° North  Level Estimated
11:06AM -12.3960 -67.7579 342° North  Level Estimated
11:07AM -12.2705 -67.7987 342° North  Level Estimated
11:07AM -12.2705 -67.7987 342° North  Level Estimated
11:08AM -12.1451 -67.8395 342° North  Level Estimated
11:08AM -12.1451 -67.8395 342° North  Level Estimated
11:09AM -12.0197 -67.8803 342° North  Level Estimated
11:09AM -12.0197 -67.8803 342° North  Level Estimated
11:10AM -11.8943 -67.9211 342° North  Level Estimated
11:10AM -11.8943 -67.9211 342° North  Level Estimated
11:11AM -11.7689 -67.9617 342° North  Level Estimated
11:11AM -11.7688 -67.9617 342° North  Level Estimated
11:12AM -11.6434 -68.0024 342° North  Level Estimated
11:12AM -11.6434 -68.0024 342° North  Level Estimated
11:13AM -11.5180 -68.0431 342° North  Level Estimated
11:13AM -11.5180 -68.0431 342° North  Level Estimated
11:14AM -11.3925 -68.0836 342° North  Level Estimated
11:14AM -11.3925 -68.0836 342° North  Level Estimated
11:15AM -11.2671 -68.1242 342° North  Level Estimated
11:15AM -11.2671 -68.1242 342° North  Level Estimated
11:16AM -11.1416 -68.1647 342° North  Level Estimated
11:16AM -11.1416 -68.1647 342° North  Level Estimated
11:17AM -11.0161 -68.2052 342° North  Level Estimated
11:17AM -11.0161 -68.2052 342° North  Level Estimated
11:18AM -10.8907 -68.2457 342° North  Level Estimated
11:18AM -10.8907 -68.2457 342° North  Level Estimated
11:19AM -10.7652 -68.2861 342° North  Level Estimated
11:19AM -10.7652 -68.2861 342° North  Level Estimated
11:20AM -10.6397 -68.3265 342° North  Level Estimated
11:20AM -10.6397 -68.3265 342° North  Level Estimated
11:21AM -10.5142 -68.3668 342° North  Level Estimated
11:21AM -10.5142 -68.3668 342° North  Level Estimated
11:22AM -10.3887 -68.4071 342° North  Level Estimated
11:22AM -10.3887 -68.4071 342° North  Level Estimated
11:23AM -10.2632 -68.4474 342° North  Level Estimated
11:23AM -10.2632 -68.4474 342° North  Level Estimated
11:24AM -10.1377 -68.4877 342° North  Level Estimated
11:24AM -10.1377 -68.4877 342° North  Level Estimated
11:25AM -10.0122 -68.5279 342° North  Level Estimated
11:25AM -10.0122 -68.5279 342° North  Level Estimated
11:26AM -9.8867 -68.5681 342° North  Level Estimated
11:27AM -9.7612 -68.6082 342° North  Level Estimated
11:28AM -9.6357 -68.6484 343° North  Level Estimated
11:29AM -9.5101 -68.6885 343° North  Level Estimated
11:30AM -9.3846 -68.7285 343° North  Level Estimated
11:31AM -9.2591 -68.7686 343° North  Level Estimated
11:32AM -9.1335 -68.8086 343° North  Level Estimated
11:33AM -9.0080 -68.8486 343° North  Level Estimated
11:34AM -8.8825 -68.8885 343° North  Level Estimated
11:35AM -8.7569 -68.9285 343° North  Level Estimated
11:36AM -8.6313 -68.9684 343° North  Level Estimated
11:37AM -8.5058 -69.0082 343° North  Level Estimated
11:38AM -8.3802 -69.0481 343° North  Level Estimated
11:39AM -8.2547 -69.0879 343° North  Level Estimated
11:40AM -8.1291 -69.1277 343° North  Level Estimated
11:41AM -8.0035 -69.1675 343° North  Level Estimated
11:42AM -7.8779 -69.2073 343° North  Level Estimated
11:43AM -7.7523 -69.2470 343° North  Level Estimated
11:44AM -7.6267 -69.2867 343° North  Level Estimated
11:45AM -7.5012 -69.3264 343° North  Level Estimated
11:46AM -7.3756 -69.3660 343° North  Level Estimated
11:47AM -7.2500 -69.4057 343° North  Level Estimated
11:48AM -7.1244 -69.4453 343° North  Level Estimated
11:49AM -6.9988 -69.4849 343° North  Level Estimated
11:50AM -6.8732 -69.5244 343° North  Level Estimated
11:51AM -6.7476 -69.5640 343° North  Level Estimated
11:52AM -6.6219 -69.6035 343° North  Level Estimated
11:53AM -6.4963 -69.6430 343° North  Level Estimated
11:54AM -6.3707 -69.6825 343° North  Level Estimated
11:55AM -6.2451 -69.7220 343° North  Level Estimated
11:56AM -6.1195 -69.7614 343° North  Level Estimated
11:57AM -5.9938 -69.8009 343° North  Level Estimated
11:58AM -5.8682 -69.8403 343° North  Level Estimated
11:59AM -5.7426 -69.8797 343° North  Level Estimated
12:00PM -5.6169 -69.9191 343° North  Level Estimated
12:01PM -5.4913 -69.9584 343° North  Level Estimated
12:02PM -5.3656 -69.9977 343° North  Level Estimated
12:03PM -5.2400 -70.0371 343° North  Level Estimated
12:04PM -5.1143 -70.0764 343° North  Level Estimated
12:05PM -4.9887 -70.1157 343° North  Level Estimated
12:06PM -4.8630 -70.1550 343° North  Level Estimated
12:07PM -4.7374 -70.1942 343° North  Level Estimated
12:08PM -4.6117 -70.2335 343° North  Level Estimated
12:09PM -4.4861 -70.2727 343° North  Level Estimated
12:10PM -4.3604 -70.3120 343° North  Level Estimated
12:11PM -4.2347 -70.3512 343° North  Level Estimated
12:12PM -4.1091 -70.3904 343° North  Level Estimated
12:13PM -3.9834 -70.4296 343° North  Level Estimated
12:14PM -3.8577 -70.4687 343° North  Level Estimated
12:15PM -3.7321 -70.5079 343° North  Level Estimated
12:16PM -3.6064 -70.5471 343° North  Level Estimated
12:17PM -3.4807 -70.5862 343° North  Level Estimated
12:18PM -3.3551 -70.6253 343° North  Level Estimated
12:19PM -3.2294 -70.6644 343° North  Level Estimated
12:20PM -3.1037 -70.7036 343° North  Level Estimated
12:21PM -2.9780 -70.7427 343° North  Level Estimated
12:22PM -2.8523 -70.7817 343° North  Level Estimated
12:23PM -2.7266 -70.8208 343° North  Level Estimated
12:24PM -2.6010 -70.8599 343° North  Level Estimated
12:25PM -2.4753 -70.8990 343° North  Level Estimated
12:26PM -2.3496 -70.9380 343° North  Level Estimated
12:27PM -2.2239 -70.9771 343° North  Level Estimated
12:28PM -2.0982 -71.0161 343° North  Level Estimated
12:29PM -1.9725 -71.0552 343° North  Level Estimated
12:30PM -1.8468 -71.0942 343° North  Level Estimated
12:31PM -1.7211 -71.1332 343° North  Level Estimated
12:32PM -1.5955 -71.1723 343° North  Level Estimated
12:33PM -1.4698 -71.2113 343° North  Level Estimated
12:34PM -1.3441 -71.2503 343° North  Level Estimated
12:35PM -1.2184 -71.2893 343° North  Level Estimated
12:36PM -1.0927 -71.3283 343° North  Level Estimated
12:37PM -0.9670 -71.3673 343° North  Level Estimated
12:38PM -0.8413 -71.4063 343° North  Level Estimated
12:39PM -0.7156 -71.4453 343° North  Level Estimated
12:40PM -0.5899 -71.4843 343° North  Level Estimated
12:41PM -0.4642 -71.5233 343° North  Level Estimated
12:42PM -0.3385 -71.5623 343° North  Level Estimated
12:43PM -0.2128 -71.6013 343° North  Level Estimated
12:44PM -0.0871 -71.6403 343° North  Level Estimated
12:45PM 0.0386 -71.6793 343° North  Level Estimated
12:46PM 0.1643 -71.7183 343° North  Level Estimated
12:47PM 0.2900 -71.7573 343° North  Level Estimated
12:48PM 0.4157 -71.7962 343° North  Level Estimated
12:49PM 0.5414 -71.8353 343° North  Level Estimated
12:50PM 0.6671 -71.8743 343° North  Level Estimated
12:51PM 0.7928 -71.9133 343° North  Level Estimated
12:52PM 0.9185 -71.9522 343° North  Level Estimated
12:53PM 1.0442 -71.9912 343° North  Level Estimated
12:54PM 1.1699 -72.0303 343° North  Level Estimated
12:55PM 1.2956 -72.0693 343° North  Level Estimated
12:56PM 1.4213 -72.1083 343° North  Level Estimated
12:57PM 1.5470 -72.1473 343° North  Level Estimated
12:58PM 1.6727 -72.1863 343° North  Level Estimated
12:59PM 1.7984 -72.2253 343° North  Level Estimated
01:00PM 1.9240 -72.2644 343° North  Level Estimated
01:01PM 2.0497 -72.3034 343° North  Level Estimated
01:02PM 2.1754 -72.3425 343° North  Level Estimated
01:03PM 2.3011 -72.3815 343° North  Level Estimated
01:04PM 2.4268 -72.4206 343° North  Level Estimated
01:05PM 2.5525 -72.4596 343° North  Level Estimated
01:06PM 2.6782 -72.4987 343° North  Level Estimated
01:07PM 2.8039 -72.5378 343° North  Level Estimated
01:08PM 2.9295 -72.5769 343° North  Level Estimated
01:09PM 3.0552 -72.6160 343° North  Level Estimated
01:10PM 3.1809 -72.6551 343° North  Level Estimated
01:11PM 3.3066 -72.6942 343° North  Level Estimated
01:12PM 3.4323 -72.7334 343° North  Level Estimated
01:13PM 3.5579 -72.7725 343° North  Level Estimated
01:14PM 3.6836 -72.8116 343° North  Level Estimated
01:15PM 3.8093 -72.8508 343° North  Level Estimated
01:16PM 3.9349 -72.8900 343° North  Level Estimated
01:16PM 4.3280 -73.1050 343° North 505 581 38,000  Level FlightAware
01:17PM 4.4170 -73.1280 346° North 504 580 38,000  Level FlightAware
01:17PM 4.0606 -72.9292 343° North  Level Estimated
01:17PM 4.5070 -73.1510 346° North 505 581 38,000  Level FlightAware
01:18PM 4.6180 -73.1790 346° North 504 580 38,000  Level FlightAware
01:19PM 4.7090 -73.2030 345° North 503 579 38,000  Level FlightAware
01:19PM 4.7990 -73.2260 346° North 502 578 38,000  Level FlightAware
01:20PM 4.8880 -73.2490 346° North 501 577 38,000  Level FlightAware
01:21PM 4.9740 -73.2720 345° North 500 575 38,000  Level FlightAware
01:21PM 5.0610 -73.2940 346° North 499 574 38,000  Level FlightAware
01:22PM 5.1580 -73.3190 346° North 498 573 38,000  Level FlightAware
01:23PM 5.2610 -73.3460 345° North 497 572 38,000  Level FlightAware
01:23PM 5.3500 -73.3690 346° North 496 571 38,000  Level FlightAware
01:24PM 5.4480 -73.3940 346° North 499 574 38,000  Level FlightAware
01:25PM 5.5380 -73.4180 345° North 497 572 38,000  Level FlightAware
01:25PM 5.6200 -73.4390 346° North 497 572 38,000  Level FlightAware
01:26PM 5.7070 -73.4610 346° North 490 564 38,000  Level FlightAware
01:27PM 5.8010 -73.4860 345° North 493 567 38,000  Level FlightAware
01:27PM 5.8820 -73.5070 346° North 498 573 38,000  Level FlightAware
01:28PM 5.9790 -73.5320 346° North 495 570 38,000  Level FlightAware
01:29PM 6.0600 -73.5530 346° North 494 568 38,000  Level FlightAware
01:29PM 6.1500 -73.5760 346° North 488 562 38,000  Level FlightAware
01:30PM 6.1790 -73.5830 347° North 487 560 38,000  Level FlightAware
01:31PM 6.4070 -73.6420 346° North 481 554 38,000  Level FlightAware
01:32PM 6.5060 -73.6680 345° North 481 554 38,000  Level FlightAware
01:33PM 6.6010 -73.6930 345° North 483 556 38,000  Level FlightAware
01:34PM 6.6890 -73.7160 345° North 482 555 38,000  Level FlightAware
01:34PM 6.7790 -73.7390 346° North 479 551 38,000  Level FlightAware
01:35PM 6.8690 -73.7620 346° North 479 551 38,000  Level FlightAware
01:36PM 7.0240 -73.8030 345° North 480 552 38,000  Level FlightAware
01:37PM 7.1480 -73.8360 345° North 482 555 38,000  Level FlightAware
01:38PM 7.2440 -73.8630 344° North 484 557 38,000  Level FlightAware
01:39PM 7.3270 -73.8860 345° North 484 557 38,000  Level FlightAware
01:39PM 7.4420 -73.9180 345° North 481 554 38,000  Level FlightAware
01:40PM 7.5510 -73.9480 345° North 478 550 38,000  Level FlightAware
01:41PM 7.6250 -73.9680 345° North 477 549 38,000  Level FlightAware
01:42PM 7.7330 -73.9990 344° North 476 548 38,000  Level FlightAware
01:42PM 7.8080 -74.0190 345° North 476 548 38,000  Level FlightAware
01:43PM 7.8940 -74.0430 345° North 475 547 38,000  Level FlightAware
01:44PM 7.9770 -74.0660 345° North 476 548 38,000  Level FlightAware
01:44PM 8.0520 -74.0870 345° North 477 549 38,000  Level FlightAware
01:46PM 8.2600 -74.1460 344° North 479 551 38,000  Level FlightAware
01:46PM 8.3400 -74.1680 345° North 478 550 38,000  Level FlightAware
01:47PM 8.4360 -74.1950 344° North 481 554 38,000  Level FlightAware
01:48PM 8.5350 -74.2230 344° North 479 551 38,000  Level FlightAware
01:49PM 8.6320 -74.2500 345° North 477 549 38,000  Level FlightAware
01:49PM 8.6930 -74.2680 344° North 476 548 38,000  Level FlightAware
01:50PM 8.7800 -74.2920 345° North 476 548 38,000  Level FlightAware
01:50PM 8.8650 -74.3160 344° North 476 548 38,000  Level FlightAware
01:51PM 8.9540 -74.3410 344° North 477 549 38,000  Level FlightAware
01:52PM 9.0470 -74.3670 345° North 477 549 38,000  Level FlightAware
01:53PM 9.1520 -74.3970 344° North 479 551 38,000  Level FlightAware
01:53PM 9.2380 -74.4210 345° North 479 551 38,000  Level FlightAware
01:54PM 9.3240 -74.4450 345° North 480 552 38,000  Level FlightAware
01:55PM 9.4200 -74.4720 344° North 481 554 38,000  Level FlightAware
01:55PM 9.5030 -74.4950 345° North 483 556 38,000  Level FlightAware
01:56PM 9.5820 -74.5180 344° North 483 556 38,000  Level FlightAware
01:57PM 9.6770 -74.5450 344° North 484 557 38,000  Level FlightAware
01:57PM 9.7650 -74.5690 345° North 483 556 38,000  Level FlightAware
01:58PM 9.8510 -74.5930 345° North 481 554 38,000  Level FlightAware
01:59PM 9.9480 -74.6210 344° North 480 552 38,000  Level FlightAware
02:00PM 10.0340 -74.6450 345° North 478 550 38,000  Level FlightAware
02:00PM 10.1170 -74.6690 344° North 477 549 38,000  Level FlightAware
02:01PM 10.2130 -74.6960 345° North 478 550 38,000  Level FlightAware
02:02PM 10.3140 -74.7250 344° North 478 550 38,000  Level FlightAware
02:03PM 10.4500 -74.7630 345° North 479 551 38,000  Level FlightAware
02:04PM 10.5420 -74.7890 344° North 479 551 38,000  Level FlightAware
02:04PM 10.6320 -74.8150 344° North 478 550 38,000  Level FlightAware
02:05PM 10.7150 -74.8380 345° North 478 550 38,000  Level FlightAware
02:06PM 10.8130 -74.8660 344° North 477 549 38,000  Level FlightAware
02:06PM 10.8940 -74.8870 346° North 476 548 38,000  Level FlightAware
02:07PM 11.0150 -74.9180 346° North 474 545 38,000  Level FlightAware
02:08PM 11.1340 -74.9480 346° North 476 548 38,000  Level FlightAware
02:09PM 11.2290 -74.9740 345° North 479 551 38,000  Level FlightAware
02:10PM 11.3490 -75.0050 346° North 479 551 38,000  Level FlightAware
02:10PM 11.4250 -75.0250 346° North 478 550 38,000  Level FlightAware
02:12PM 11.5580 -75.0590 346° North 479 551 38,000  Level FlightAware
02:12PM 11.6510 -75.0840 345° North 480 552 38,000  Level FlightAware
02:13PM 11.7370 -75.1060 346° North 479 551 38,000  Level FlightAware
02:14PM 11.8290 -75.1300 346° North 478 550 38,000  Level FlightAware
02:14PM 11.9020 -75.1490 346° North 478 550 38,000  Level FlightAware
02:14PM 11.9240 -75.1540 347° North 478 550 38,000  Level FlightAware
02:16PM 12.0640 -75.1900 346° North 478 550 38,000  Level FlightAware
02:16PM 12.1540 -75.2130 346° North 478 550 38,000  Level FlightAware
02:17PM 12.2190 -75.2300 346° North 478 550 38,000  Level FlightAware
02:18PM 12.3070 -75.2520 346° North 478 550 38,000  Level FlightAware
02:19PM 12.3740 -75.2690 346° North 478 550 38,000  Level FlightAware
02:19PM 12.4420 -75.2870 346° North 478 550 38,000  Level FlightAware
02:20PM 12.5330 -75.3100 346° North 478 550 38,000  Level FlightAware
02:21PM 12.5990 -75.3270 346° North 478 550 38,000  Level FlightAware
02:22PM 12.7120 -75.3550 346° North 478 550 38,000  Level FlightAware
02:22PM 12.7770 -75.3720 346° North 478 550 38,000  Level FlightAware
02:23PM 12.8630 -75.3940 346° North 478 550 38,000  Level FlightAware
02:26PM 13.1784 -75.5049 341° North  Level Estimated
02:27PM 13.3029 -75.5487 341° North  Level Estimated
02:28PM 13.4274 -75.5926 341° North  Level Estimated
02:29PM 13.5519 -75.6366 341° North  Level Estimated
02:30PM 13.6763 -75.6805 341° North  Level Estimated
02:31PM 13.8008 -75.7246 341° North  Level Estimated
02:32PM 13.9253 -75.7686 341° North  Level Estimated
02:33PM 14.0497 -75.8128 341° North  Level Estimated
02:34PM 14.1742 -75.8569 341° North  Level Estimated
02:35PM 14.2986 -75.9012 341° North  Level Estimated
02:36PM 14.4230 -75.9454 341° North  Level Estimated
02:37PM 14.5474 -75.9898 341° North  Level Estimated
02:38PM 14.6718 -76.0341 341° North  Level Estimated
02:39PM 14.7962 -76.0785 341° North  Level Estimated
02:40PM 14.9206 -76.1230 341° North  Level Estimated
02:41PM 15.0450 -76.1675 341° North  Level Estimated
02:42PM 15.1694 -76.2121 341° North  Level Estimated
02:43PM 15.2937 -76.2567 341° North  Level Estimated
02:44PM 15.4181 -76.3014 341° North  Level Estimated
02:45PM 15.5424 -76.3461 341° North  Level Estimated
02:46PM 15.6668 -76.3909 341° North  Level Estimated
02:47PM 15.7911 -76.4358 341° North  Level Estimated
02:48PM 15.9154 -76.4807 341° North  Level Estimated
02:49PM 16.0397 -76.5256 341° North  Level Estimated
02:50PM 16.1640 -76.5706 341° North  Level Estimated
02:51PM 16.2883 -76.6157 341° North  Level Estimated
02:52PM 16.4126 -76.6608 341° North  Level Estimated
02:53PM 16.5369 -76.7060 341° North  Level Estimated
02:54PM 16.6611 -76.7512 341° North  Level Estimated
02:55PM 16.7854 -76.7965 341° North  Level Estimated
02:56PM 16.9096 -76.8419 341° North  Level Estimated
02:57PM 17.0338 -76.8873 341° North  Level Estimated
02:58PM 17.1581 -76.9328 341° North  Level Estimated
02:59PM 17.2823 -76.9783 341° North  Level Estimated
03:00PM 17.4065 -77.0239 341° North  Level Estimated
03:01PM 17.5307 -77.0696 341° North  Level Estimated
03:02PM 17.6549 -77.1153 341° North  Level Estimated
03:03PM 17.7790 -77.1611 341° North  Level Estimated
03:04PM 17.9032 -77.2069 341° North  Level Estimated
03:05PM 18.0273 -77.2528 341° North  Level Estimated
03:06PM 18.1515 -77.2988 341° North  Level Estimated
03:07PM 18.2756 -77.3449 341° North  Level Estimated
03:08PM 18.3997 -77.3910 341° North  Level Estimated
03:09PM 18.5238 -77.4371 341° North  Level Estimated
03:10PM 18.6479 -77.4834 341° North  Level Estimated
03:11PM 18.7720 -77.5297 341° North  Level Estimated
03:12PM 18.8961 -77.5761 341° North  Level Estimated
03:13PM 19.0201 -77.6225 341° North  Level Estimated
03:14PM 19.1442 -77.6691 340° North  Level Estimated
03:15PM 19.2682 -77.7156 340° North  Level Estimated
03:16PM 19.3922 -77.7623 340° North  Level Estimated
03:17PM 19.5162 -77.8090 340° North  Level Estimated
03:18PM 19.6402 -77.8558 340° North  Level Estimated
03:19PM 19.7642 -77.9027 340° North  Level Estimated
03:20PM 19.8882 -77.9497 340° North  Level Estimated
03:21PM 20.0122 -77.9967 340° North  Level Estimated
03:22PM 20.1361 -78.0438 340° North  Level Estimated
03:23PM 20.2601 -78.0909 340° North  Level Estimated
03:24PM 20.3840 -78.1382 340° North  Level Estimated
03:25PM 20.5079 -78.1855 340° North  Level Estimated
03:26PM 20.6318 -78.2329 340° North  Level Estimated
03:27PM 20.7557 -78.2804 340° North  Level Estimated
03:28PM 20.8796 -78.3279 340° North  Level Estimated
03:29PM 21.0034 -78.3755 340° North  Level Estimated
03:30PM 21.1273 -78.4232 340° North  Level Estimated
03:31PM 21.2511 -78.4710 340° North  Level Estimated
03:32PM 21.3749 -78.5189 340° North  Level Estimated
03:33PM 21.4987 -78.5669 340° North  Level Estimated
03:34PM 21.6225 -78.6149 340° North  Level Estimated
03:35PM 21.7463 -78.6630 340° North  Level Estimated
03:36PM 21.8701 -78.7112 340° North  Level Estimated
03:37PM 21.9938 -78.7595 340° North  Level Estimated
03:38PM 22.1176 -78.8078 340° North  Level Estimated
03:39PM 22.2413 -78.8563 340° North  Level Estimated
03:40PM 22.3650 -78.9048 340° North  Level Estimated
03:41PM 22.4875 -78.9530 340° North  Level Estimated
03:42PM 22.6099 -79.0012 340° North  Level Estimated